Terminal Aerodrome Forecast
Issued by NWS

Home | Current Version | Previous Version | Text Only | Print | Product List | Glossary On
Versions: 1 2 3 4 5 6 7 8 9 10 11 12 13 14 15 16 17 18 19 20 21
000
FTUS41 KAKQ 052320
TAFPHF
TAF
KPHF 052320Z 0600/0624 12009KT P6SM SCT020 BKN100
      TEMPO 0600/0603 3SM -RA BR SCT015 OVC040
     FM060900 20004KT P6SM BKN100
     FM061200 20006KT P6SM BKN060=

USA.gov is the U.S. government's official web portal to all federal, state and local government web resources and services.